createdAt,value
2023-03-07T00:01:01.576Z,4.50
2023-03-07T00:03:28.378Z,4.50
2023-03-07T00:06:06.963Z,4.50
2023-03-07T00:08:34.169Z,4.50
2023-03-07T00:11:02.988Z,4.50
2023-03-07T00:13:31.644Z,4.50
2023-03-07T00:16:07.315Z,4.40
2023-03-07T00:18:34.630Z,4.40
2023-03-07T00:21:05.885Z,4.50
2023-03-07T00:23:34.476Z,4.40
2023-03-07T00:26:04.086Z,4.40
2023-03-07T00:28:31.038Z,4.40
2023-03-07T00:31:03.337Z,4.40
2023-03-07T00:33:30.379Z,4.40
2023-03-07T00:35:59.886Z,4.50
2023-03-07T00:38:28.011Z,4.50
2023-03-07T00:41:01.873Z,4.50
2023-03-07T00:43:29.681Z,4.40
2023-03-07T00:45:57.133Z,4.40
2023-03-07T00:48:24.704Z,4.40
2023-03-07T00:50:52.279Z,4.40
2023-03-07T00:53:19.929Z,4.40
2023-03-07T00:56:05.689Z,4.40
2023-03-07T00:58:35.126Z,4.40
2023-03-07T01:01:03.642Z,4.40
2023-03-07T01:03:30.859Z,4.40
2023-03-07T01:05:58.126Z,4.40
2023-03-07T01:08:24.854Z,4.50
2023-03-07T01:10:51.611Z,4.50
2023-03-07T01:13:19.631Z,4.40
2023-03-07T01:15:46.407Z,4.50
2023-03-07T01:18:13.526Z,4.40
2023-03-07T01:21:31.589Z,4.30
2023-03-07T01:23:58.434Z,4.20
2023-03-07T01:26:28.262Z,4.20
2023-03-07T01:28:57.667Z,4.30
2023-03-07T01:31:25.673Z,4.40
2023-03-07T01:33:53.692Z,4.40
2023-03-07T01:36:25.507Z,4.40
2023-03-07T01:38:55.526Z,4.40
2023-03-07T01:41:22.752Z,4.40
2023-03-07T01:43:49.753Z,4.40
2023-03-07T01:46:22.170Z,4.40
2023-03-07T01:49:03.926Z,4.40
2023-03-07T01:51:31.802Z,4.30
2023-03-07T01:54:00.605Z,4.40
2023-03-07T01:56:27.881Z,4.30
2023-03-07T01:58:55.508Z,4.30
2023-03-07T02:01:23.870Z,4.30
2023-03-07T02:04:08.374Z,4.20
2023-03-07T02:06:38.461Z,4.20
2023-03-07T02:09:12.400Z,4.20
2023-03-07T02:11:44.331Z,4.20
2023-03-07T02:14:11.504Z,4.20
2023-03-07T02:16:39.140Z,4.20
2023-03-07T02:19:33.292Z,4.10
2023-03-07T02:22:11.069Z,4.20
2023-03-07T02:24:56.104Z,4.20
2023-03-07T02:27:25.596Z,4.10
2023-03-07T02:29:52.976Z,4.10
2023-03-07T02:32:20.080Z,4.10
2023-03-07T02:34:46.897Z,4.10
2023-03-07T02:37:24.338Z,4.10
2023-03-07T02:39:51.441Z,4.10
2023-03-07T02:42:22.542Z,4.10
2023-03-07T02:44:57.973Z,4.10
2023-03-07T02:49:53.420Z,4.20
2023-03-07T02:52:21.806Z,4.20
2023-03-07T02:54:48.845Z,4.20
2023-03-07T02:57:16.102Z,4.10
2023-03-07T02:59:42.965Z,4.10
2023-03-07T03:02:09.707Z,4.10
2023-03-07T03:04:36.471Z,4.10
2023-03-07T03:07:03.447Z,4.10
2023-03-07T03:09:30.255Z,4.10
2023-03-07T03:11:57.116Z,4.10
2023-03-07T03:14:23.920Z,4.10
2023-03-07T03:16:52.834Z,4.10
2023-03-07T03:19:19.671Z,4.00
2023-03-07T03:21:46.474Z,4.10
2023-03-07T03:24:13.212Z,4.00
2023-03-07T03:26:39.965Z,4.00
2023-03-07T03:29:07.500Z,4.00
2023-03-07T03:31:35.110Z,4.00
2023-03-07T03:34:02.390Z,3.90
2023-03-07T03:36:29.261Z,3.90
2023-03-07T03:38:57.452Z,3.90
2023-03-07T03:41:25.014Z,3.90
2023-03-07T03:43:52.387Z,3.90
2023-03-07T03:46:20.434Z,3.80
2023-03-07T03:48:54.517Z,3.80
2023-03-07T03:51:22.414Z,3.70
2023-03-07T03:53:49.774Z,3.70
2023-03-07T03:56:21.911Z,3.60
2023-03-07T03:58:51.571Z,3.60
2023-03-07T04:01:19.508Z,3.60
2023-03-07T04:03:48.913Z,3.60
2023-03-07T04:06:20.040Z,3.60
2023-03-07T04:08:47.496Z,3.60
2023-03-07T04:11:14.699Z,3.50
2023-03-07T04:13:41.890Z,3.50
2023-03-07T04:16:08.816Z,3.50
2023-03-07T04:18:36.334Z,3.50
2023-03-07T04:21:03.660Z,3.40
2023-03-07T04:23:30.419Z,3.50
2023-03-07T04:25:59.423Z,3.50
2023-03-07T04:28:28.991Z,3.50
2023-03-07T04:30:56.461Z,3.50
2023-03-07T04:33:24.211Z,3.50
2023-03-07T04:35:51.013Z,3.50
2023-03-07T04:38:18.151Z,3.50
2023-03-07T04:40:44.965Z,3.50
2023-03-07T04:43:11.744Z,3.50
2023-03-07T04:45:38.556Z,3.50
2023-03-07T04:48:05.707Z,3.50
2023-03-07T04:50:32.585Z,3.50
2023-03-07T04:52:59.287Z,3.40
2023-03-07T04:55:26.168Z,3.40
2023-03-07T04:57:52.980Z,3.40
2023-03-07T05:00:20.355Z,3.30
2023-03-07T05:02:48.567Z,3.30
2023-03-07T05:05:16.242Z,3.30
2023-03-07T05:07:43.858Z,3.20
2023-03-07T05:10:11.357Z,3.20
2023-03-07T05:12:38.264Z,3.20
2023-03-07T05:15:05.879Z,3.20
2023-03-07T05:17:32.653Z,3.20
2023-03-07T05:19:59.385Z,3.20
2023-03-07T05:22:26.095Z,3.20
2023-03-07T05:24:52.868Z,3.20
2023-03-07T05:27:19.612Z,3.30
2023-03-07T05:29:46.474Z,3.30
2023-03-07T05:32:13.543Z,3.30
2023-03-07T05:34:40.403Z,3.40
2023-03-07T05:37:07.111Z,3.40
2023-03-07T05:39:33.907Z,3.40
2023-03-07T05:42:00.697Z,3.40
2023-03-07T05:44:27.416Z,3.40
2023-03-07T05:46:54.131Z,3.50
2023-03-07T05:49:21.025Z,3.60
2023-03-07T05:51:47.808Z,3.60
2023-03-07T05:54:14.525Z,3.60
2023-03-07T05:56:41.288Z,3.60
2023-03-07T05:59:09.569Z,3.60
2023-03-07T06:01:36.357Z,3.60
2023-03-07T06:04:03.190Z,3.70
2023-03-07T06:06:29.980Z,3.60
2023-03-07T06:08:57.702Z,3.60
2023-03-07T06:11:24.434Z,3.60
2023-03-07T06:13:51.239Z,3.60
2023-03-07T06:16:18.168Z,3.60
2023-03-07T06:18:44.841Z,3.70
2023-03-07T06:21:15.146Z,3.60
2023-03-07T06:23:42.463Z,3.60
2023-03-07T06:26:10.403Z,3.60
2023-03-07T06:28:37.152Z,3.70
2023-03-07T06:31:15.766Z,3.80
2023-03-07T06:33:43.466Z,3.80
2023-03-07T06:36:12.728Z,3.90
2023-03-07T06:38:40.808Z,3.90
2023-03-07T06:41:08.521Z,3.90
2023-03-07T06:43:35.270Z,3.90
2023-03-07T06:46:02.917Z,3.90
2023-03-07T06:48:29.846Z,3.90
2023-03-07T06:50:56.839Z,4.00
2023-03-07T06:53:23.601Z,4.00
2023-03-07T06:55:51.506Z,4.10
2023-03-07T06:58:19.115Z,4.10
2023-03-07T07:00:45.950Z,4.10
2023-03-07T07:03:14.535Z,4.20
2023-03-07T07:05:41.592Z,4.20
2023-03-07T07:08:08.352Z,4.30
2023-03-07T07:10:35.145Z,4.30
2023-03-07T07:13:01.864Z,4.30
2023-03-07T07:15:28.692Z,4.30
2023-03-07T07:17:55.425Z,4.30
2023-03-07T07:20:22.359Z,4.30
2023-03-07T07:22:49.333Z,4.40
2023-03-07T07:25:16.222Z,4.40
2023-03-07T07:27:42.936Z,4.50
2023-03-07T07:30:10.446Z,4.60
2023-03-07T07:32:37.619Z,4.70
2023-03-07T07:35:04.918Z,4.80
2023-03-07T07:37:31.650Z,4.90
2023-03-07T07:39:58.909Z,5.00
2023-03-07T07:42:25.596Z,5.20
2023-03-07T07:44:52.331Z,5.50
2023-03-07T07:47:19.178Z,5.80
2023-03-07T07:49:45.976Z,6.00
2023-03-07T07:52:12.718Z,6.20
2023-03-07T07:54:39.463Z,6.40
2023-03-07T07:57:06.206Z,6.70
2023-03-07T07:59:34.306Z,7.00
2023-03-07T08:02:01.713Z,7.20
2023-03-07T08:04:28.523Z,7.30
2023-03-07T08:06:55.517Z,7.40
2023-03-07T08:09:22.230Z,7.60
2023-03-07T08:11:48.945Z,7.90
2023-03-07T08:14:15.851Z,7.90
2023-03-07T08:16:42.603Z,7.90
2023-03-07T08:19:09.288Z,8.10
2023-03-07T08:21:35.999Z,8.20
2023-03-07T08:24:04.099Z,8.20
2023-03-07T08:26:31.684Z,8.30
2023-03-07T08:28:59.062Z,8.50
2023-03-07T08:31:25.837Z,8.50
2023-03-07T08:33:53.471Z,8.50
2023-03-07T08:36:20.739Z,8.70
2023-03-07T08:38:51.932Z,9.00
2023-03-07T08:41:20.909Z,9.10
2023-03-07T08:43:47.843Z,9.20
2023-03-07T08:46:16.567Z,9.50
2023-03-07T08:48:45.136Z,9.50
2023-03-07T08:51:15.774Z,9.40
2023-03-07T08:53:43.512Z,9.20
2023-03-07T08:56:12.335Z,9.20
2023-03-07T08:58:39.542Z,9.30
2023-03-07T09:01:08.212Z,9.10
2023-03-07T09:03:35.421Z,9.00
2023-03-07T09:06:03.447Z,9.00
2023-03-07T09:08:30.518Z,8.80
2023-03-07T09:11:00.959Z,8.90
2023-03-07T09:13:27.939Z,8.90
2023-03-07T09:15:54.769Z,8.80
2023-03-07T09:18:22.994Z,8.80
2023-03-07T09:20:49.881Z,8.70
2023-03-07T09:23:16.719Z,8.70
2023-03-07T09:25:44.459Z,8.60
2023-03-07T09:28:11.431Z,8.60
2023-03-07T09:30:38.318Z,8.70
2023-03-07T09:33:05.316Z,8.70
2023-03-07T09:35:32.368Z,8.70
2023-03-07T09:37:59.234Z,8.50
2023-03-07T09:40:27.927Z,8.50
2023-03-07T09:42:55.839Z,8.50
2023-03-07T09:46:04.293Z,8.40
2023-03-07T09:48:53.156Z,8.40
2023-03-07T09:51:38.128Z,8.40
2023-03-07T09:54:23.605Z,8.60
2023-03-07T09:56:59.064Z,8.90
2023-03-07T09:59:39.614Z,8.70
2023-03-07T10:02:23.392Z,8.70
2023-03-07T10:05:04.429Z,8.70
2023-03-07T10:07:31.408Z,8.60
2023-03-07T10:10:02.355Z,8.50
2023-03-07T10:12:46.802Z,8.50
2023-03-07T10:15:28.137Z,8.40
2023-03-07T10:18:33.025Z,8.60
2023-03-07T10:21:20.126Z,8.50
2023-03-07T10:23:59.980Z,8.30
2023-03-07T10:26:33.979Z,8.20
2023-03-07T10:29:10.536Z,8.10
2023-03-07T10:31:41.415Z,8.00
2023-03-07T10:34:32.797Z,8.00
2023-03-07T10:37:17.814Z,7.80
2023-03-07T10:39:57.801Z,7.80
2023-03-07T10:42:27.721Z,7.90
2023-03-07T10:44:54.559Z,7.70
2023-03-07T10:47:26.041Z,7.70
2023-03-07T10:50:17.229Z,7.80
2023-03-07T10:52:53.558Z,7.90
2023-03-07T10:55:52.792Z,8.10
2023-03-07T10:58:29.091Z,8.20
2023-03-07T11:01:08.224Z,8.30
2023-03-07T11:03:59.473Z,8.30
2023-03-07T11:06:44.632Z,8.30
2023-03-07T11:09:30.731Z,8.30
2023-03-07T11:12:12.539Z,8.30
2023-03-07T11:14:55.834Z,8.20
2023-03-07T11:17:40.742Z,8.10
2023-03-07T11:20:24.001Z,8.00
2023-03-07T11:23:11.525Z,8.00
2023-03-07T11:25:38.434Z,7.80
2023-03-07T11:28:30.747Z,7.60
2023-03-07T11:31:42.085Z,7.50
2023-03-07T11:34:25.522Z,7.50
2023-03-07T11:36:59.181Z,7.60
2023-03-07T11:39:38.743Z,7.50
2023-03-07T11:42:22.520Z,7.50
2023-03-07T11:45:08.293Z,7.70
2023-03-07T11:47:42.547Z,7.80
2023-03-07T11:50:23.680Z,7.80
2023-03-07T11:53:12.235Z,7.80
2023-03-07T11:56:09.684Z,7.80
2023-03-07T11:58:45.793Z,7.60
2023-03-07T12:01:40.418Z,7.60
2023-03-07T12:04:36.688Z,7.60
2023-03-07T12:07:34.698Z,7.60
2023-03-07T12:10:15.329Z,7.50
2023-03-07T12:13:06.491Z,7.50
2023-03-07T12:15:46.099Z,7.60
2023-03-07T12:18:41.483Z,7.70
2023-03-07T12:21:17.257Z,7.80
2023-03-07T12:23:56.586Z,7.90
2023-03-07T12:26:28.437Z,7.90
2023-03-07T12:29:10.030Z,7.90
2023-03-07T12:31:47.669Z,7.90
2023-03-07T12:35:07.223Z,7.70
2023-03-07T12:37:47.564Z,7.80
2023-03-07T12:40:17.336Z,7.90
2023-03-07T12:42:58.922Z,8.00
2023-03-07T12:45:38.312Z,8.00
2023-03-07T12:48:11.481Z,8.10
2023-03-07T12:50:41.470Z,8.10
2023-03-07T12:53:24.567Z,8.00
2023-03-07T12:56:15.347Z,8.00
2023-03-07T12:58:48.345Z,8.00
2023-03-07T13:01:35.008Z,8.10
2023-03-07T13:04:25.115Z,8.10
2023-03-07T13:06:55.461Z,8.10
2023-03-07T13:09:24.868Z,8.10
2023-03-07T13:12:29.842Z,8.00
2023-03-07T13:15:00.527Z,7.90
2023-03-07T13:17:30.282Z,8.00
2023-03-07T13:19:59.027Z,8.00
2023-03-07T13:22:25.869Z,8.10
2023-03-07T13:25:15.016Z,8.10
2023-03-07T13:27:41.872Z,8.20
2023-03-07T13:30:11.838Z,8.20
2023-03-07T13:32:56.413Z,8.20
2023-03-07T13:35:46.375Z,8.20
2023-03-07T13:38:41.121Z,8.20
2023-03-07T13:41:12.965Z,8.30
2023-03-07T13:43:45.979Z,8.20
2023-03-07T13:46:24.637Z,8.20
2023-03-07T13:48:54.532Z,8.20
2023-03-07T13:51:21.901Z,8.30
2023-03-07T13:53:53.112Z,8.30
2023-03-07T13:56:29.464Z,8.40
2023-03-07T13:59:14.303Z,8.40
2023-03-07T14:02:04.583Z,8.50
2023-03-07T14:04:45.031Z,8.40
2023-03-07T14:07:17.554Z,8.40
2023-03-07T14:10:07.517Z,8.40
2023-03-07T14:13:05.572Z,8.50
2023-03-07T14:15:47.900Z,8.50
2023-03-07T14:18:38.209Z,8.40
2023-03-07T14:21:12.530Z,8.40
2023-03-07T14:24:03.597Z,8.40
2023-03-07T14:26:36.956Z,8.40
2023-03-07T14:29:22.205Z,8.50
2023-03-07T14:31:54.894Z,8.60
2023-03-07T14:34:21.797Z,8.60
2023-03-07T14:37:04.479Z,8.60
2023-03-07T14:39:59.058Z,8.60
2023-03-07T14:42:28.922Z,8.70
2023-03-07T14:45:12.900Z,8.70
2023-03-07T14:47:39.702Z,8.80
2023-03-07T14:50:16.462Z,8.80
2023-03-07T14:52:44.062Z,9.00
2023-03-07T14:55:20.589Z,9.10
2023-03-07T14:57:52.926Z,9.00
2023-03-07T15:00:29.645Z,9.00
2023-03-07T15:03:04.595Z,9.00
2023-03-07T15:05:34.945Z,9.00
2023-03-07T15:08:02.000Z,8.90
2023-03-07T15:10:32.317Z,8.80
2023-03-07T15:12:59.484Z,8.70
2023-03-07T15:15:49.074Z,8.70
2023-03-07T15:18:24.563Z,8.80
2023-03-07T15:20:54.748Z,8.70
2023-03-07T15:23:24.249Z,8.60
2023-03-07T15:26:05.260Z,8.50
2023-03-07T15:28:35.256Z,8.60
2023-03-07T15:31:02.672Z,8.60
2023-03-07T15:33:33.573Z,8.50
2023-03-07T15:36:12.680Z,8.50
2023-03-07T15:38:45.587Z,8.40
2023-03-07T15:41:25.897Z,8.30
2023-03-07T15:44:10.779Z,8.30
2023-03-07T15:46:44.982Z,8.30
2023-03-07T15:49:25.882Z,8.30
2023-03-07T15:51:55.891Z,8.20
2023-03-07T15:54:39.381Z,8.20
2023-03-07T15:57:16.045Z,8.10
2023-03-07T15:59:53.824Z,8.10
2023-03-07T16:02:32.738Z,8.00
2023-03-07T16:05:01.300Z,7.80
2023-03-07T16:07:28.520Z,7.80
2023-03-07T16:09:55.378Z,7.70
2023-03-07T16:12:24.145Z,7.60
2023-03-07T16:14:53.585Z,7.60
2023-03-07T16:17:22.464Z,7.50
2023-03-07T16:19:49.468Z,7.40
2023-03-07T16:22:18.483Z,7.40
2023-03-07T16:24:45.238Z,7.30
2023-03-07T16:27:20.657Z,7.20
2023-03-07T16:29:48.219Z,7.20
2023-03-07T16:32:20.637Z,7.20
2023-03-07T16:34:48.882Z,7.10
2023-03-07T16:37:15.684Z,7.10
2023-03-07T16:39:42.611Z,7.00
2023-03-07T16:42:35.947Z,7.00
2023-03-07T16:45:07.560Z,6.90
2023-03-07T16:47:34.274Z,6.90
2023-03-07T16:50:01.269Z,6.90
2023-03-07T16:52:28.087Z,6.90
2023-03-07T16:54:54.841Z,6.80
2023-03-07T16:57:22.777Z,6.80
2023-03-07T16:59:49.576Z,6.80
2023-03-07T17:02:18.974Z,6.80
2023-03-07T17:04:45.924Z,6.80
2023-03-07T17:07:22.075Z,6.70
2023-03-07T17:09:49.659Z,6.70
2023-03-07T17:12:20.603Z,6.70
2023-03-07T17:14:47.448Z,6.60
2023-03-07T17:17:25.488Z,6.60
2023-03-07T17:19:52.212Z,6.50
2023-03-07T17:22:21.939Z,6.50
2023-03-07T17:24:48.778Z,6.50
2023-03-07T17:27:16.568Z,6.50
2023-03-07T17:29:50.930Z,6.40
2023-03-07T17:32:18.178Z,6.40
2023-03-07T17:34:44.983Z,6.30
2023-03-07T17:37:12.396Z,6.30
2023-03-07T17:39:39.576Z,6.20
2023-03-07T17:42:07.412Z,6.20
2023-03-07T17:44:34.998Z,6.20
2023-03-07T17:47:01.825Z,6.20
2023-03-07T17:49:37.052Z,6.20
2023-03-07T17:52:05.512Z,6.10
2023-03-07T17:54:33.389Z,6.10
2023-03-07T17:57:00.943Z,6.10
2023-03-07T17:59:27.738Z,6.00
2023-03-07T18:01:54.988Z,6.00
2023-03-07T18:04:21.808Z,6.00
2023-03-07T18:06:48.666Z,6.00
2023-03-07T18:09:16.671Z,5.90
2023-03-07T18:11:43.482Z,5.90
2023-03-07T18:14:11.289Z,5.90
2023-03-07T18:16:38.060Z,5.90
2023-03-07T18:19:06.792Z,5.90
2023-03-07T18:21:33.859Z,5.90
2023-03-07T18:24:00.719Z,5.70
2023-03-07T18:26:27.818Z,5.70
2023-03-07T18:28:55.877Z,5.70
2023-03-07T18:31:28.684Z,5.70
2023-03-07T18:33:56.256Z,5.70
2023-03-07T18:36:25.287Z,5.60
2023-03-07T18:38:52.747Z,5.50
2023-03-07T18:41:24.703Z,5.50
2023-03-07T18:43:53.494Z,5.50
2023-03-07T18:46:22.262Z,5.40
2023-03-07T18:48:49.625Z,5.40
2023-03-07T18:51:24.914Z,5.40
2023-03-07T18:53:56.944Z,5.30
2023-03-07T18:56:24.293Z,5.30
2023-03-07T18:58:56.666Z,5.30
2023-03-07T19:01:26.316Z,5.20
2023-03-07T19:03:55.085Z,5.10
2023-03-07T19:06:23.896Z,5.00
2023-03-07T19:08:51.349Z,4.80
2023-03-07T19:11:19.430Z,4.70
2023-03-07T19:13:46.524Z,4.70
2023-03-07T19:16:17.161Z,4.70
2023-03-07T19:18:44.887Z,4.80
2023-03-07T19:21:16.835Z,4.90
2023-03-07T19:23:43.642Z,5.00
2023-03-07T19:26:12.890Z,5.00
2023-03-07T19:28:40.547Z,5.10
2023-03-07T19:31:09.333Z,5.20
2023-03-07T19:33:37.728Z,5.30
2023-03-07T19:36:10.375Z,5.30
2023-03-07T19:38:37.875Z,5.40
2023-03-07T19:41:08.198Z,5.40
2023-03-07T19:43:35.022Z,5.40
2023-03-07T19:46:06.481Z,5.40
2023-03-07T19:48:33.940Z,5.40
2023-03-07T19:51:01.081Z,5.40
2023-03-07T19:53:28.181Z,5.50
2023-03-07T19:55:55.247Z,5.50
2023-03-07T19:58:22.148Z,5.50
2023-03-07T20:00:48.881Z,5.50
2023-03-07T20:03:20.566Z,5.50
2023-03-07T20:05:48.944Z,5.50
2023-03-07T20:08:19.291Z,5.40
2023-03-07T20:10:46.099Z,5.50
2023-03-07T20:13:14.072Z,5.40
2023-03-07T20:15:42.721Z,5.50
2023-03-07T20:18:11.193Z,5.40
2023-03-07T20:20:38.042Z,5.40
2023-03-07T20:23:04.948Z,5.50
2023-03-07T20:25:31.764Z,5.50
2023-03-07T20:27:58.594Z,5.50
2023-03-07T20:30:25.638Z,5.60
2023-03-07T20:32:52.598Z,5.60
2023-03-07T20:35:20.052Z,5.70
2023-03-07T20:37:46.878Z,5.70
2023-03-07T20:40:14.245Z,5.70
2023-03-07T20:42:40.983Z,5.80
2023-03-07T20:45:08.204Z,5.80
2023-03-07T20:47:38.157Z,5.80
2023-03-07T20:50:06.056Z,5.90
2023-03-07T20:52:32.861Z,5.90
2023-03-07T20:54:59.938Z,5.90
2023-03-07T20:57:26.940Z,5.90
2023-03-07T20:59:53.823Z,5.90
2023-03-07T21:02:20.559Z,5.90
2023-03-07T21:04:49.807Z,5.80
2023-03-07T21:07:16.755Z,5.80
2023-03-07T21:09:50.697Z,5.80
2023-03-07T21:12:18.055Z,5.80
2023-03-07T21:14:44.903Z,5.80
2023-03-07T21:17:14.719Z,5.80
2023-03-07T21:19:41.598Z,5.80
2023-03-07T21:22:08.529Z,5.90
2023-03-07T21:24:35.399Z,5.90
2023-03-07T21:27:02.211Z,5.80
2023-03-07T21:29:29.018Z,5.80
2023-03-07T21:31:55.958Z,5.70
2023-03-07T21:34:22.711Z,5.80
2023-03-07T21:36:55.871Z,5.80
2023-03-07T21:39:25.866Z,5.80
2023-03-07T21:41:52.645Z,5.90
2023-03-07T21:44:19.466Z,5.80
2023-03-07T21:46:46.196Z,5.80
2023-03-07T21:49:13.146Z,5.80
2023-03-07T21:51:39.940Z,5.80
2023-03-07T21:54:06.649Z,5.70
2023-03-07T21:56:33.371Z,5.80
2023-03-07T21:59:00.116Z,5.70
2023-03-07T22:01:28.951Z,5.80
2023-03-07T22:03:57.640Z,5.80
2023-03-07T22:06:25.230Z,5.80
2023-03-07T22:08:52.029Z,5.80
2023-03-07T22:11:18.932Z,5.80
2023-03-07T22:13:45.744Z,5.80
2023-03-07T22:16:15.539Z,5.80
2023-03-07T22:18:42.326Z,5.80
2023-03-07T22:21:17.095Z,5.80
2023-03-07T22:23:44.170Z,5.80
2023-03-07T22:26:11.984Z,5.80
2023-03-07T22:28:40.631Z,5.70
2023-03-07T22:31:12.388Z,5.70
2023-03-07T22:33:40.479Z,5.70
2023-03-07T22:36:10.421Z,5.60
2023-03-07T22:38:37.136Z,5.60
2023-03-07T22:41:06.814Z,5.60
2023-03-07T22:43:35.655Z,5.40
2023-03-07T22:46:03.014Z,5.50
2023-03-07T22:48:30.116Z,5.40
2023-03-07T22:50:57.179Z,5.40
2023-03-07T22:53:26.938Z,5.40
2023-03-07T22:55:54.147Z,5.50
2023-03-07T22:58:20.965Z,5.40
2023-03-07T23:00:47.757Z,5.40
2023-03-07T23:03:14.531Z,5.40
2023-03-07T23:05:41.389Z,5.30
2023-03-07T23:08:08.146Z,5.30
2023-03-07T23:10:35.039Z,5.20
2023-03-07T23:13:01.888Z,5.20
2023-03-07T23:15:28.933Z,5.10
2023-03-07T23:17:55.922Z,5.10
2023-03-07T23:20:25.785Z,5.10
2023-03-07T23:22:53.414Z,5.10
2023-03-07T23:25:21.027Z,5.10
2023-03-07T23:27:48.119Z,5.10
2023-03-07T23:30:17.334Z,5.00
2023-03-07T23:32:44.168Z,5.00
2023-03-07T23:35:11.530Z,5.00
2023-03-07T23:37:38.347Z,5.00
2023-03-07T23:40:05.560Z,5.00
2023-03-07T23:42:32.416Z,5.00
2023-03-07T23:44:59.208Z,4.90
2023-03-07T23:47:25.940Z,4.90
2023-03-07T23:49:52.728Z,4.90
2023-03-07T23:52:19.498Z,4.90
2023-03-07T23:54:46.514Z,4.80
2023-03-07T23:57:13.330Z,4.80
2023-03-07T23:59:40.032Z,4.90
